Time;durP1;ratioP1;P1;durP2;ratioP2;P2;SDS_P1;SDS_P2;PMS_P1;PMS_P2;Temp;Humidity;BMP_temperature;BMP_pressure;BME280_temperature;BME280_humidity;BME280_pressure;Samples;Min_cycle;Max_cycle;Signal;HPM_P1;HPM_P2
2023/01/19 00:01:04;;;;;;;;;;;;;;;;;;5038426;28;20433;-90
2023/01/19 00:03:30;;;;;;;;;;;;;;;;;;5055215;28;19999;-91
2023/01/19 00:05:56;;;;;;;;;;;;;;;;;;5038651;28;19921;-91
2023/01/19 00:08:22;;;;;;;;;;;;;;;;;;5054846;28;20364;-91
2023/01/19 00:10:49;;;;;;;;;;;;;;;;;;5038284;28;19942;-91
2023/01/19 00:13:15;;;;;;;;;;;;;;;;;;5038473;28;20287;-90
2023/01/19 00:15:41;;;;;;;;;;;;;;;;;;5038784;28;19921;-90
2023/01/19 00:18:07;;;;;;;;;;;;;;;;;;5038062;28;19986;-91
2023/01/19 00:20:34;;;;;;;;;;;;;;;;;;5054939;28;19920;-90
2023/01/19 00:23:00;;;;;;;;;;;;;;;;;;5038467;28;20371;-91
2023/01/19 00:25:26;;;;;;;;;;;;;;;;;;5038156;28;19928;-91
2023/01/19 00:27:52;;;;;;;;;;;;;;;;;;5037712;28;19925;-91
2023/01/19 00:30:18;;;;;;;;;;;;;;;;;;5038068;28;20139;-90
2023/01/19 00:32:44;;;;;;;;;;;;;;;;;;5038229;28;19921;-92
2023/01/19 00:35:09;;;;;;;;;;;;;;;;;;5038277;28;20011;-91
2023/01/19 00:37:35;;;;;;;;;;;;;;;;;;5054774;28;19920;-91
2023/01/19 00:40:01;;;;;;;;;;;;;;;;;;5037898;28;20417;-90
2023/01/19 00:42:39;;;;;;;;;;;;;;;;;;5038020;28;19968;-90
2023/01/19 00:45:05;;;;;;;;;;;;;;;;;;5038104;28;19943;-90
2023/01/19 00:47:32;;;;;;;;;;;;;;;;;;5038014;28;20375;-93
2023/01/19 00:49:58;;;;;;;;;;;;;;;;;;5038687;28;20023;-90
2023/01/19 00:52:23;;;;;;;;;;;;;;;;;;5054500;28;20018;-90
2023/01/19 00:54:49;;;;;;;;;;;;;;;;;;5037447;28;19924;-89
2023/01/19 00:57:15;;;;;;;;;;;;;;;;;;5054017;28;19924;-90
2023/01/19 00:59:42;;;;;;;;;;;;;;;;;;5037713;28;19924;-89
2023/01/19 01:02:08;;;;;;;;;;;;;;;;;;5054236;28;20055;-90
2023/01/19 01:04:33;;;;;;;;;;;;;;;;;;5037624;28;20036;-90
2023/01/19 01:06:59;;;;;;;;;;;;;;;;;;5054228;28;19974;-90
2023/01/19 01:09:26;;;;;;;;;;;;;;;;;;5053966;28;19973;-89
2023/01/19 01:11:52;;;;;;;;;;;;;;;;;;5037300;28;19920;-89
2023/01/19 01:14:18;;;;;;;;;;;;;;;;;;5054101;28;19927;-89
2023/01/19 01:16:44;;;;;;;;;;;;;;;;;;5054169;28;19927;-89
2023/01/19 01:19:10;;;;;;;;;;;;;;;;;;5037252;28;19932;-88
2023/01/19 01:21:36;;;;;;;;;;;;;;;;;;5040087;28;20458;-90
2023/01/19 01:24:02;;;;;;;;;;;;;;;;;;5057582;28;19987;-89
2023/01/19 01:26:27;;;;;;;;;;;;;;;;;;5040787;28;19956;-89
2023/01/19 01:28:53;;;;;;;;;;;;;;;;;;5057973;28;20006;-89
2023/01/19 01:31:19;;;;;;;;;;;;;;;;;;5041101;28;20428;-89
2023/01/19 01:33:45;;;;;;;;;;;;;;;;;;5057480;28;20003;-90
2023/01/19 01:36:11;;;;;;;;;;;;;;;;;;5040835;28;20007;-89
2023/01/19 01:38:37;;;;;;;;;;;;;;;;;;5040888;28;20018;-89
2023/01/19 01:41:03;;;;;;;;;;;;;;;;;;5057313;28;20007;-90
2023/01/19 01:43:29;;;;;;;;;;;;;;;;;;5041072;28;20375;-89
2023/01/19 01:45:55;;;;;;;;;;;;;;;;;;5057133;28;19927;-89
2023/01/19 01:48:27;;;;;;;;;;;;;;;;;;5040908;28;19958;-89
2023/01/19 01:53:37;;;;;;;;;;;;;;;;;;5057140;28;19920;-89
2023/01/19 01:56:03;;;;;;;;;;;;;;;;;;5057289;28;19989;-90
2023/01/19 01:58:29;;;;;;;;;;;;;;;;;;5040743;28;19929;-90
2023/01/19 02:03:40;;;;;;;;;;;;;;;;;;5057222;28;20334;-91
2023/01/19 02:06:06;;;;;;;;;;;;;;;;;;5040732;28;19925;-91
2023/01/19 02:14:01;;;;;;;;;;;;;;;;;;5056844;28;19921;-90
2023/01/19 02:16:28;;;;;;;;;;;;;;;;;;5057989;28;20337;-90
2023/01/19 02:18:54;;;;;;;;;;;;;;;;;;5040165;28;20359;-89
2023/01/19 02:21:20;;;;;;;;;;;;;;;;;;5056658;28;20008;-90
2023/01/19 02:23:46;;;;;;;;;;;;;;;;;;5056738;28;19928;-90
2023/01/19 02:26:12;;;;;;;;;;;;;;;;;;5056477;28;19927;-90
2023/01/19 02:28:38;;;;;;;;;;;;;;;;;;5039705;28;19932;-90
2023/01/19 02:31:05;;;;;;;;;;;;;;;;;;5056356;28;19920;-90
2023/01/19 02:33:30;;;;;;;;;;;;;;;;;;5040739;28;20362;-89
2023/01/19 02:35:56;;;;;;;;;;;;;;;;;;5056703;28;20018;-89
2023/01/19 02:38:23;;;;;;;;;;;;;;;;;;5039494;28;19928;-89
2023/01/19 02:40:48;;;;;;;;;;;;;;;;;;5056310;28;19963;-90
2023/01/19 02:43:14;;;;;;;;;;;;;;;;;;5056200;28;20330;-89
2023/01/19 02:45:40;;;;;;;;;;;;;;;;;;5056590;28;20465;-89
2023/01/19 02:48:06;;;;;;;;;;;;;;;;;;5039813;28;19925;-90
2023/01/19 02:50:32;;;;;;;;;;;;;;;;;;5039994;28;19920;-90
2023/01/19 02:52:58;;;;;;;;;;;;;;;;;;5056501;28;19928;-90
2023/01/19 02:55:24;;;;;;;;;;;;;;;;;;5056221;28;19928;-90
2023/01/19 02:57:50;;;;;;;;;;;;;;;;;;5055966;28;19928;-90
2023/01/19 03:00:16;;;;;;;;;;;;;;;;;;5039230;28;19920;-90
2023/01/19 03:02:42;;;;;;;;;;;;;;;;;;5039712;28;19920;-90
2023/01/19 03:05:08;;;;;;;;;;;;;;;;;;5056383;28;19921;-90
2023/01/19 03:07:34;;;;;;;;;;;;;;;;;;5056046;28;19920;-90
2023/01/19 03:10:00;;;;;;;;;;;;;;;;;;5055834;28;20023;-90
2023/01/19 03:12:26;;;;;;;;;;;;;;;;;;5039133;28;19968;-90
2023/01/19 03:14:51;;;;;;;;;;;;;;;;;;5039007;28;19950;-89
2023/01/19 03:17:18;;;;;;;;;;;;;;;;;;5056117;28;19921;-89
2023/01/19 03:19:45;;;;;;;;;;;;;;;;;;5038847;28;19971;-89
2023/01/19 03:22:10;;;;;;;;;;;;;;;;;;5038828;28;19971;-89
2023/01/19 03:24:36;;;;;;;;;;;;;;;;;;5039078;28;20409;-90
2023/01/19 03:27:02;;;;;;;;;;;;;;;;;;5038577;28;19970;-89
2023/01/19 03:29:28;;;;;;;;;;;;;;;;;;5038745;28;19932;-89
2023/01/19 03:31:54;;;;;;;;;;;;;;;;;;5055075;28;19920;-89
2023/01/19 03:34:22;;;;;;;;;;;;;;;;;;5055110;28;19928;-89
2023/01/19 03:36:49;;;;;;;;;;;;;;;;;;5038524;28;19946;-89
2023/01/19 03:39:15;;;;;;;;;;;;;;;;;;5054867;28;19982;-89
2023/01/19 03:41:41;;;;;;;;;;;;;;;;;;5038319;28;19921;-90
2023/01/19 03:44:07;;;;;;;;;;;;;;;;;;5054418;28;19920;-90
2023/01/19 03:46:33;;;;;;;;;;;;;;;;;;5054640;28;19975;-91
2023/01/19 03:48:59;;;;;;;;;;;;;;;;;;5038272;28;19921;-91
2023/01/19 03:51:24;;;;;;;;;;;;;;;;;;5038097;28;20050;-90
2023/01/19 03:53:50;;;;;;;;;;;;;;;;;;5040788;28;19943;-90
2023/01/19 03:56:16;;;;;;;;;;;;;;;;;;5038843;28;20360;-90
2023/01/19 03:58:42;;;;;;;;;;;;;;;;;;5037925;28;19924;-91
2023/01/19 04:01:08;;;;;;;;;;;;;;;;;;5054744;28;19921;-90
2023/01/19 04:03:39;;;;;;;;;;;;;;;;;;5054616;28;20249;-91
2023/01/19 04:06:05;;;;;;;;;;;;;;;;;;5037689;28;19970;-89
2023/01/19 04:08:31;;;;;;;;;;;;;;;;;;5037524;28;19921;-89
2023/01/19 04:10:57;;;;;;;;;;;;;;;;;;5054152;28;19920;-90
2023/01/19 04:13:23;;;;;;;;;;;;;;;;;;5037544;28;20339;-89
2023/01/19 04:15:49;;;;;;;;;;;;;;;;;;5037418;28;19924;-90
2023/01/19 04:18:15;;;;;;;;;;;;;;;;;;5053953;28;19932;-90
2023/01/19 04:20:41;;;;;;;;;;;;;;;;;;5037779;28;19927;-89
2023/01/19 04:23:06;;;;;;;;;;;;;;;;;;5054640;28;19920;-90
2023/01/19 04:25:32;;;;;;;;;;;;;;;;;;5037803;28;20367;-90
2023/01/19 04:27:58;;;;;;;;;;;;;;;;;;5054007;28;19925;-90
2023/01/19 04:30:27;;;;;;;;;;;;;;;;;;5037353;28;19920;-90
2023/01/19 04:32:55;;;;;;;;;;;;;;;;;;5037795;28;19920;-90
2023/01/19 04:35:21;;;;;;;;;;;;;;;;;;5037233;28;19951;-90
2023/01/19 04:37:47;;;;;;;;;;;;;;;;;;5054080;28;19951;-89
2023/01/19 04:40:13;;;;;;;;;;;;;;;;;;5054061;28;19999;-89
2023/01/19 04:42:38;;;;;;;;;;;;;;;;;;5054155;28;19920;-89
2023/01/19 04:45:04;;;;;;;;;;;;;;;;;;5054201;28;19920;-91
2023/01/19 04:47:30;;;;;;;;;;;;;;;;;;5037477;28;19921;-90
2023/01/19 04:49:59;;;;;;;;;;;;;;;;;;5037861;28;19924;-90
2023/01/19 04:52:25;;;;;;;;;;;;;;;;;;5037250;28;19977;-90
2023/01/19 04:54:51;;;;;;;;;;;;;;;;;;5039428;28;20348;-90
2023/01/19 04:57:17;;;;;;;;;;;;;;;;;;5041638;28;19921;-91
2023/01/19 04:59:43;;;;;;;;;;;;;;;;;;5041702;28;19924;-90
2023/01/19 05:02:10;;;;;;;;;;;;;;;;;;5058277;28;20042;-90
2023/01/19 05:04:36;;;;;;;;;;;;;;;;;;5041969;28;19921;-90
2023/01/19 05:07:02;;;;;;;;;;;;;;;;;;5041460;28;20363;-90
2023/01/19 05:09:28;;;;;;;;;;;;;;;;;;5041077;28;19928;-90
2023/01/19 05:11:54;;;;;;;;;;;;;;;;;;5041357;28;20367;-90
2023/01/19 05:14:20;;;;;;;;;;;;;;;;;;5041474;28;19924;-90
2023/01/19 05:16:46;;;;;;;;;;;;;;;;;;5057756;28;19921;-91
2023/01/19 05:19:11;;;;;;;;;;;;;;;;;;5057653;28;20314;-90
2023/01/19 05:21:37;;;;;;;;;;;;;;;;;;5040923;28;19925;-90
2023/01/19 05:24:03;;;;;;;;;;;;;;;;;;5057502;28;19921;-89
2023/01/19 05:26:29;;;;;;;;;;;;;;;;;;5057444;28;20008;-89
2023/01/19 05:28:55;;;;;;;;;;;;;;;;;;5040557;28;20015;-90
2023/01/19 05:31:22;;;;;;;;;;;;;;;;;;5057378;28;20012;-89
2023/01/19 05:33:48;;;;;;;;;;;;;;;;;;5041588;28;19921;-90
2023/01/19 05:36:14;;;;;;;;;;;;;;;;;;5040706;28;19926;-89
2023/01/19 05:38:40;;;;;;;;;;;;;;;;;;5056928;28;20295;-90
2023/01/19 05:41:06;;;;;;;;;;;;;;;;;;5057182;28;19920;-91
2023/01/19 05:43:32;;;;;;;;;;;;;;;;;;5040473;28;20019;-89
2023/01/19 05:45:57;;;;;;;;;;;;;;;;;;5040476;28;20038;-90
2023/01/19 05:48:23;;;;;;;;;;;;;;;;;;5040575;28;19920;-90
2023/01/19 05:50:49;;;;;;;;;;;;;;;;;;5040375;28;19925;-91
2023/01/19 05:53:15;;;;;;;;;;;;;;;;;;5040484;28;19964;-90
2023/01/19 05:55:41;;;;;;;;;;;;;;;;;;5040616;28;19927;-91
2023/01/19 05:58:07;;;;;;;;;;;;;;;;;;5040251;28;19924;-90
2023/01/19 06:00:33;;;;;;;;;;;;;;;;;;5040550;28;19920;-90
2023/01/19 06:03:00;;;;;;;;;;;;;;;;;;5040513;28;20303;-90
2023/01/19 06:05:26;;;;;;;;;;;;;;;;;;5039878;28;19921;-90
2023/01/19 06:07:52;;;;;;;;;;;;;;;;;;5039930;28;19975;-91
2023/01/19 06:10:18;;;;;;;;;;;;;;;;;;5040280;28;19989;-92
2023/01/19 06:12:44;;;;;;;;;;;;;;;;;;5040690;28;19932;-91
2023/01/19 06:15:11;;;;;;;;;;;;;;;;;;5040201;28;20010;-91
2023/01/19 06:17:37;;;;;;;;;;;;;;;;;;5056452;28;19920;-89
2023/01/19 06:20:04;;;;;;;;;;;;;;;;;;5040082;28;20294;-89
2023/01/19 06:22:30;;;;;;;;;;;;;;;;;;5056295;28;19924;-89
2023/01/19 06:24:56;;;;;;;;;;;;;;;;;;5056081;28;20299;-89
2023/01/19 06:27:21;;;;;;;;;;;;;;;;;;5039523;28;19928;-89
2023/01/19 06:29:47;;;;;;;;;;;;;;;;;;5039630;28;20444;-90
2023/01/19 06:32:13;;;;;;;;;;;;;;;;;;5055957;28;20391;-89
2023/01/19 06:34:42;;;;;;;;;;;;;;;;;;5039049;28;19928;-89
2023/01/19 06:37:09;;;;;;;;;;;;;;;;;;5039255;28;19921;-89
2023/01/19 06:39:36;;;;;;;;;;;;;;;;;;5055769;28;19924;-89
2023/01/19 06:42:02;;;;;;;;;;;;;;;;;;5039273;28;19928;-89
2023/01/19 06:44:28;;;;;;;;;;;;;;;;;;5055888;28;19931;-89
2023/01/19 06:46:54;;;;;;;;;;;;;;;;;;5038957;28;19936;-89
2023/01/19 06:49:20;;;;;;;;;;;;;;;;;;5055922;28;20417;-89
2023/01/19 06:51:46;;;;;;;;;;;;;;;;;;5056271;28;19967;-89
2023/01/19 06:54:12;;;;;;;;;;;;;;;;;;5055549;28;19974;-89
2023/01/19 06:56:38;;;;;;;;;;;;;;;;;;5055677;28;19929;-89
2023/01/19 06:59:04;;;;;;;;;;;;;;;;;;5038665;28;19924;-89
2023/01/19 07:01:30;;;;;;;;;;;;;;;;;;5038886;28;19971;-88
2023/01/19 07:03:56;;;;;;;;;;;;;;;;;;5039001;28;20257;-89
2023/01/19 07:06:22;;;;;;;;;;;;;;;;;;5055574;28;19935;-89
2023/01/19 07:08:48;;;;;;;;;;;;;;;;;;5038694;28;19921;-89
2023/01/19 07:11:14;;;;;;;;;;;;;;;;;;5038866;28;19928;-91
2023/01/19 07:13:40;;;;;;;;;;;;;;;;;;5055218;28;19950;-91
2023/01/19 07:16:06;;;;;;;;;;;;;;;;;;5055268;28;19921;-89
2023/01/19 07:18:31;;;;;;;;;;;;;;;;;;5037180;28;19925;-89
2023/01/19 07:20:57;;;;;;;;;;;;;;;;;;5038517;28;20387;-88
2023/01/19 07:23:23;;;;;;;;;;;;;;;;;;5055486;28;19926;-89
2023/01/19 07:25:49;;;;;;;;;;;;;;;;;;5055291;28;20333;-89
2023/01/19 07:28:15;;;;;;;;;;;;;;;;;;5055056;28;19925;-89
2023/01/19 07:30:41;;;;;;;;;;;;;;;;;;5038317;28;19920;-89
2023/01/19 07:33:07;;;;;;;;;;;;;;;;;;5055160;28;19973;-89
2023/01/19 07:35:33;;;;;;;;;;;;;;;;;;5038801;28;20348;-89
2023/01/19 07:37:59;;;;;;;;;;;;;;;;;;5055154;28;20195;-89
2023/01/19 07:40:25;;;;;;;;;;;;;;;;;;5054753;28;19921;-89
2023/01/19 07:42:51;;;;;;;;;;;;;;;;;;5038045;28;19920;-90
2023/01/19 07:45:17;;;;;;;;;;;;;;;;;;5038060;28;19943;-89
2023/01/19 07:47:43;;;;;;;;;;;;;;;;;;5037846;28;19935;-89
2023/01/19 07:50:09;;;;;;;;;;;;;;;;;;5038316;28;19920;-91
2023/01/19 07:52:35;;;;;;;;;;;;;;;;;;5038272;28;20367;-90
2023/01/19 07:55:01;;;;;;;;;;;;;;;;;;5038075;28;19920;-91
2023/01/19 07:57:27;;;;;;;;;;;;;;;;;;5038025;28;19934;-92
2023/01/19 07:59:53;;;;;;;;;;;;;;;;;;5054713;28;19924;-92
2023/01/19 08:02:19;;;;;;;;;;;;;;;;;;5038821;28;20007;-91
2023/01/19 08:04:45;;;;;;;;;;;;;;;;;;5054867;28;20015;-91
2023/01/19 08:07:11;;;;;;;;;;;;;;;;;;5038980;28;19976;-92
2023/01/19 08:09:37;;;;;;;;;;;;;;;;;;5039333;28;20308;-91
2023/01/19 08:12:06;;;;;;;;;;;;;;;;;;5040152;28;19943;-94
2023/01/19 08:14:49;;;;;;;;;;;;;;;;;;5055788;28;19931;-92
2023/01/19 08:17:15;;;;;;;;;;;;;;;;;;5038466;28;20054;-93
2023/01/19 08:19:44;;;;;;;;;;;;;;;;;;5039029;28;19966;-92
2023/01/19 08:22:10;;;;;;;;;;;;;;;;;;5040534;28;20323;-92
2023/01/19 08:24:37;;;;;;;;;;;;;;;;;;5055589;28;19932;-92
2023/01/19 08:27:03;;;;;;;;;;;;;;;;;;5037729;28;19970;-93
2023/01/19 08:29:32;;;;;;;;;;;;;;;;;;5037992;28;19924;-92
2023/01/19 08:32:00;;;;;;;;;;;;;;;;;;5038302;28;19967;-93
2023/01/19 08:34:26;;;;;;;;;;;;;;;;;;5037996;28;19920;-92
2023/01/19 08:36:53;;;;;;;;;;;;;;;;;;5037883;28;19974;-92
2023/01/19 08:42:26;;;;;;;;;;;;;;;;;;5058650;28;20007;-91
2023/01/19 08:44:52;;;;;;;;;;;;;;;;;;5039850;28;19966;-93
2023/01/19 08:47:49;;;;;;;;;;;;;;;;;;;;;
2023/01/19 08:53:32;;;;;;;;;;;;;;;;;;5073293;28;20337;-95
2023/01/19 08:56:35;;;;;;;;;;;;;;;;;;4982499;28;20173;-93
2023/01/19 08:59:29;;;;;;;;;;;;;;;;;;;;;
2023/01/19 09:02:00;;;;;;;;;;;;;;;;;;5054811;28;19920;-95
2023/01/19 09:04:36;;;;;;;;;;;;;;;;;;5075545;28;19920;-95
2023/01/19 09:07:02;;;;;;;;;;;;;;;;;;5040767;28;19938;-94
2023/01/19 09:09:28;;;;;;;;;;;;;;;;;;5044151;28;19932;-92
2023/01/19 09:11:54;;;;;;;;;;;;;;;;;;5036417;28;19931;-92
2023/01/19 09:14:23;;;;;;;;;;;;;;;;;;5041652;28;20409;-93
2023/01/19 09:17:08;;;;;;;;;;;;;;;;;;5039778;28;19929;-93
2023/01/19 09:19:44;;;;;;;;;;;;;;;;;;;;;
2023/01/19 09:22:52;;;;;;;;;;;;;;;;;;;;;
2023/01/19 09:25:14;;;;;;;;;;;;;;;;;;5027892;28;20023;-94
2023/01/19 09:27:40;;;;;;;;;;;;;;;;;;5019119;28;19936;-95
2023/01/19 09:30:13;;;;;;;;;;;;;;;;;;5018918;28;19971;-94
2023/01/19 09:32:39;;;;;;;;;;;;;;;;;;5018222;28;20011;-95
2023/01/19 09:35:08;;;;;;;;;;;;;;;;;;5019244;28;19964;-95
2023/01/19 09:37:46;;;;;;;;;;;;;;;;;;5018376;28;19984;-94
2023/01/19 09:40:21;;;;;;;;;;;;;;;;;;5018460;28;19928;-95
2023/01/19 09:43:06;;;;;;;;;;;;;;;;;;;;;
2023/01/19 09:45:45;;;;;;;;;;;;;;;;;;;;;
2023/01/19 09:48:20;;;;;;;;;;;;;;;;;;5056842;28;20395;-93
2023/01/19 09:53:39;;;;;;;;;;;;;;;;;;5055795;28;19920;-93
2023/01/19 10:01:13;;;;;;;;;;;;;;;;;;5055711;28;20292;-92
2023/01/19 10:04:02;;;;;;;;;;;;;;;;;;5054659;28;19928;-93
2023/01/19 10:06:28;;;;;;;;;;;;;;;;;;5054533;28;19921;-91
2023/01/19 10:08:54;;;;;;;;;;;;;;;;;;5037340;28;20288;-91
2023/01/19 10:11:21;;;;;;;;;;;;;;;;;;5053923;28;19949;-91
2023/01/19 10:13:55;;;;;;;;;;;;;;;;;;5038008;28;20256;-91
2023/01/19 10:16:21;;;;;;;;;;;;;;;;;;5037719;28;19921;-95
2023/01/19 10:18:47;;;;;;;;;;;;;;;;;;5037527;28;19936;-89
2023/01/19 10:21:13;;;;;;;;;;;;;;;;;;5053547;28;19968;-91
2023/01/19 10:23:38;;;;;;;;;;;;;;;;;;5036413;28;19925;-91
2023/01/19 10:26:04;;;;;;;;;;;;;;;;;;5036199;28;19928;-91
2023/01/19 10:28:33;;;;;;;;;;;;;;;;;;5036813;28;20348;-92
2023/01/19 10:30:59;;;;;;;;;;;;;;;;;;5038151;28;19927;-92
2023/01/19 10:33:25;;;;;;;;;;;;;;;;;;5053673;28;19974;-92
2023/01/19 10:35:51;;;;;;;;;;;;;;;;;;5037129;28;19989;-92
2023/01/19 10:38:21;;;;;;;;;;;;;;;;;;5053248;28;19924;-92
2023/01/19 10:40:46;;;;;;;;;;;;;;;;;;5036679;28;19925;-93
2023/01/19 10:43:12;;;;;;;;;;;;;;;;;;5036790;28;19944;-91
2023/01/19 10:45:38;;;;;;;;;;;;;;;;;;5037070;28;19950;-92
2023/01/19 10:48:04;;;;;;;;;;;;;;;;;;5036615;28;20023;-92
2023/01/19 10:50:30;;;;;;;;;;;;;;;;;;5036749;28;19921;-92
2023/01/19 10:52:56;;;;;;;;;;;;;;;;;;5052725;28;20332;-91
2023/01/19 10:55:22;;;;;;;;;;;;;;;;;;5053206;28;19951;-92
2023/01/19 10:57:48;;;;;;;;;;;;;;;;;;5036465;28;20330;-93
2023/01/19 11:00:14;;;;;;;;;;;;;;;;;;5036351;28;19924;-92
2023/01/19 11:02:40;;;;;;;;;;;;;;;;;;5036634;28;19971;-92
2023/01/19 11:05:06;;;;;;;;;;;;;;;;;;5053280;28;20363;-92
2023/01/19 11:07:32;;;;;;;;;;;;;;;;;;5053178;28;19928;-92
2023/01/19 11:09:58;;;;;;;;;;;;;;;;;;5036178;28;19928;-93
2023/01/19 11:12:24;;;;;;;;;;;;;;;;;;5036083;28;19921;-92
2023/01/19 11:14:51;;;;;;;;;;;;;;;;;;5036511;28;20066;-92
2023/01/19 11:17:17;;;;;;;;;;;;;;;;;;5036196;28;19931;-92
2023/01/19 11:19:43;;;;;;;;;;;;;;;;;;5035941;28;20376;-91
2023/01/19 11:22:08;;;;;;;;;;;;;;;;;;5035703;28;20348;-94
2023/01/19 11:24:34;;;;;;;;;;;;;;;;;;5035878;28;19921;-92
2023/01/19 11:27:02;;;;;;;;;;;;;;;;;;5052831;28;20019;-92
2023/01/19 11:29:28;;;;;;;;;;;;;;;;;;5035897;28;19921;-92
2023/01/19 11:31:56;;;;;;;;;;;;;;;;;;5036272;28;20276;-91
2023/01/19 11:34:22;;;;;;;;;;;;;;;;;;5035350;28;19921;-91
2023/01/19 11:37:05;;;;;;;;;;;;;;;;;;5035517;28;19927;-92
2023/01/19 11:39:32;;;;;;;;;;;;;;;;;;5036876;28;20368;-91
2023/01/19 11:41:58;;;;;;;;;;;;;;;;;;5035365;28;20003;-91
2023/01/19 11:44:24;;;;;;;;;;;;;;;;;;5035345;28;19921;-91
2023/01/19 11:46:50;;;;;;;;;;;;;;;;;;5035462;28;19928;-91
2023/01/19 11:49:16;;;;;;;;;;;;;;;;;;5035217;28;19925;-92
2023/01/19 11:51:45;;;;;;;;;;;;;;;;;;5052434;28;20466;-92
2023/01/19 11:54:11;;;;;;;;;;;;;;;;;;5035282;28;20403;-90
2023/01/19 11:56:37;;;;;;;;;;;;;;;;;;5051661;28;19920;-92
2023/01/19 11:59:06;;;;;;;;;;;;;;;;;;5053951;28;19928;-91
2023/01/19 12:01:35;;;;;;;;;;;;;;;;;;5038179;28;19955;-89
2023/01/19 12:04:01;;;;;;;;;;;;;;;;;;5038354;28;19927;-91
2023/01/19 12:06:27;;;;;;;;;;;;;;;;;;5055093;28;19920;-89
2023/01/19 12:08:55;;;;;;;;;;;;;;;;;;5037850;28;20008;-91
2023/01/19 12:11:21;;;;;;;;;;;;;;;;;;5054691;28;20367;-92
2023/01/19 12:13:47;;;;;;;;;;;;;;;;;;5038077;28;19920;-92
2023/01/19 12:16:13;;;;;;;;;;;;;;;;;;5038186;28;19920;-92
2023/01/19 12:18:39;;;;;;;;;;;;;;;;;;5038471;28;20070;-91
2023/01/19 12:21:05;;;;;;;;;;;;;;;;;;5038078;28;19931;-91
2023/01/19 12:23:31;;;;;;;;;;;;;;;;;;5038340;28;19920;-90
2023/01/19 12:25:57;;;;;;;;;;;;;;;;;;5054922;28;19928;-90
2023/01/19 12:28:23;;;;;;;;;;;;;;;;;;5054796;28;20328;-90
2023/01/19 12:30:50;;;;;;;;;;;;;;;;;;5054512;28;19951;-92
2023/01/19 12:33:16;;;;;;;;;;;;;;;;;;5038495;28;19924;-91
2023/01/19 12:35:42;;;;;;;;;;;;;;;;;;5054871;28;19928;-91
2023/01/19 12:38:08;;;;;;;;;;;;;;;;;;5037872;28;20026;-91
2023/01/19 12:40:35;;;;;;;;;;;;;;;;;;5055162;28;19995;-91
2023/01/19 12:43:01;;;;;;;;;;;;;;;;;;5037944;28;19920;-91
2023/01/19 12:45:27;;;;;;;;;;;;;;;;;;5054463;28;19966;-91
2023/01/19 12:47:53;;;;;;;;;;;;;;;;;;5054490;28;20019;-91
2023/01/19 12:50:19;;;;;;;;;;;;;;;;;;5054709;28;19928;-90
2023/01/19 12:52:50;;;;;;;;;;;;;;;;;;5037805;28;19924;-91
2023/01/19 12:55:16;;;;;;;;;;;;;;;;;;5037660;28;19921;-91
2023/01/19 12:57:43;;;;;;;;;;;;;;;;;;5054284;28;19927;-91
2023/01/19 13:00:10;;;;;;;;;;;;;;;;;;5053927;28;19928;-93
2023/01/19 13:02:36;;;;;;;;;;;;;;;;;;5038075;28;19924;-91
2023/01/19 13:05:02;;;;;;;;;;;;;;;;;;5054413;28;20367;-91
2023/01/19 13:07:28;;;;;;;;;;;;;;;;;;5037770;28;20430;-90
2023/01/19 13:09:54;;;;;;;;;;;;;;;;;;5037756;28;19920;-91
2023/01/19 13:12:20;;;;;;;;;;;;;;;;;;5054463;28;19921;-91
2023/01/19 13:14:46;;;;;;;;;;;;;;;;;;5037470;28;19954;-91
2023/01/19 13:17:12;;;;;;;;;;;;;;;;;;5041201;28;19966;-91
2023/01/19 13:19:38;;;;;;;;;;;;;;;;;;5058379;28;20019;-92
2023/01/19 13:22:04;;;;;;;;;;;;;;;;;;5058217;28;19928;-92
2023/01/19 13:24:30;;;;;;;;;;;;;;;;;;5057999;28;19928;-91
2023/01/19 13:26:58;;;;;;;;;;;;;;;;;;5057570;28;20379;-91
2023/01/19 13:29:24;;;;;;;;;;;;;;;;;;5041121;28;19974;-90
2023/01/19 13:32:01;;;;;;;;;;;;;;;;;;5041123;28;20009;-91
2023/01/19 13:34:27;;;;;;;;;;;;;;;;;;5041165;28;19975;-91
2023/01/19 13:36:52;;;;;;;;;;;;;;;;;;5040957;28;19974;-91
2023/01/19 13:39:18;;;;;;;;;;;;;;;;;;5057425;28;20023;-90
2023/01/19 13:41:44;;;;;;;;;;;;;;;;;;5057635;28;19994;-91
2023/01/19 13:44:10;;;;;;;;;;;;;;;;;;5041402;28;20330;-90
2023/01/19 13:46:37;;;;;;;;;;;;;;;;;;5040931;28;20292;-92
2023/01/19 13:49:03;;;;;;;;;;;;;;;;;;5040921;28;20088;-92
2023/01/19 13:51:29;;;;;;;;;;;;;;;;;;5040621;28;19921;-91
2023/01/19 13:53:55;;;;;;;;;;;;;;;;;;5040648;28;19920;-91
2023/01/19 13:56:22;;;;;;;;;;;;;;;;;;5040767;28;19928;-91
2023/01/19 13:58:47;;;;;;;;;;;;;;;;;;5040335;28;19924;-90
2023/01/19 14:01:13;;;;;;;;;;;;;;;;;;5040235;28;19925;-91
2023/01/19 14:03:39;;;;;;;;;;;;;;;;;;5040542;28;20279;-90
2023/01/19 14:06:05;;;;;;;;;;;;;;;;;;5040816;28;19920;-91
2023/01/19 14:08:32;;;;;;;;;;;;;;;;;;5040238;28;20382;-91
2023/01/19 14:11:01;;;;;;;;;;;;;;;;;;5056981;28;19990;-89
2023/01/19 14:13:28;;;;;;;;;;;;;;;;;;5040358;28;19928;-91
2023/01/19 14:15:54;;;;;;;;;;;;;;;;;;5040097;28;19970;-91
2023/01/19 14:18:20;;;;;;;;;;;;;;;;;;5056914;28;19920;-91
2023/01/19 14:20:46;;;;;;;;;;;;;;;;;;5040219;28;20406;-91
2023/01/19 14:23:12;;;;;;;;;;;;;;;;;;5040485;28;19986;-90
2023/01/19 14:25:38;;;;;;;;;;;;;;;;;;5040392;28;19920;-92
2023/01/19 14:28:04;;;;;;;;;;;;;;;;;;5039397;28;19967;-91
2023/01/19 14:30:31;;;;;;;;;;;;;;;;;;5056957;28;19920;-93
2023/01/19 14:32:57;;;;;;;;;;;;;;;;;;5056452;28;20011;-91
2023/01/19 14:35:23;;;;;;;;;;;;;;;;;;5056585;28;19967;-91
2023/01/19 14:37:49;;;;;;;;;;;;;;;;;;5039798;28;19927;-91
2023/01/19 14:40:14;;;;;;;;;;;;;;;;;;5056421;28;20382;-92
2023/01/19 14:42:40;;;;;;;;;;;;;;;;;;5056342;28;19925;-91
2023/01/19 14:45:06;;;;;;;;;;;;;;;;;;5056431;28;20375;-91
2023/01/19 14:47:32;;;;;;;;;;;;;;;;;;5055928;28;19964;-91
2023/01/19 14:49:59;;;;;;;;;;;;;;;;;;5039571;28;20007;-90
2023/01/19 14:52:25;;;;;;;;;;;;;;;;;;5056849;28;20267;-91
2023/01/19 14:54:51;;;;;;;;;;;;;;;;;;5056768;28;19920;-90
2023/01/19 14:57:17;;;;;;;;;;;;;;;;;;5056447;28;19924;-91
2023/01/19 14:59:47;;;;;;;;;;;;;;;;;;5039504;28;20015;-91
2023/01/19 15:02:13;;;;;;;;;;;;;;;;;;5039473;28;19928;-91
2023/01/19 15:04:39;;;;;;;;;;;;;;;;;;5056008;28;19920;-91
2023/01/19 15:07:04;;;;;;;;;;;;;;;;;;5039165;28;19920;-92
2023/01/19 15:09:30;;;;;;;;;;;;;;;;;;5039403;28;20364;-91
2023/01/19 15:11:56;;;;;;;;;;;;;;;;;;5055972;28;19973;-91
2023/01/19 15:14:22;;;;;;;;;;;;;;;;;;5039226;28;20007;-90
2023/01/19 15:16:48;;;;;;;;;;;;;;;;;;5055849;28;20014;-91
2023/01/19 15:19:14;;;;;;;;;;;;;;;;;;5039437;28;19994;-91
2023/01/19 15:21:40;;;;;;;;;;;;;;;;;;5039022;28;19921;-91
2023/01/19 15:24:06;;;;;;;;;;;;;;;;;;5039280;28;19921;-91
2023/01/19 15:26:32;;;;;;;;;;;;;;;;;;5039095;28;20352;-91
2023/01/19 15:28:58;;;;;;;;;;;;;;;;;;5055467;28;19920;-91
2023/01/19 15:31:24;;;;;;;;;;;;;;;;;;5055397;28;19920;-91
2023/01/19 15:33:50;;;;;;;;;;;;;;;;;;5038499;28;19951;-91
2023/01/19 15:36:16;;;;;;;;;;;;;;;;;;5055207;28;20023;-91
2023/01/19 15:38:42;;;;;;;;;;;;;;;;;;5037914;28;19960;-91
2023/01/19 15:41:08;;;;;;;;;;;;;;;;;;5055655;28;20278;-91
2023/01/19 15:43:34;;;;;;;;;;;;;;;;;;5038839;28;20007;-90
2023/01/19 15:46:01;;;;;;;;;;;;;;;;;;5055562;28;19964;-91
2023/01/19 15:48:26;;;;;;;;;;;;;;;;;;5038736;28;20283;-90
2023/01/19 15:50:52;;;;;;;;;;;;;;;;;;5057303;28;20042;-91
2023/01/19 15:53:18;;;;;;;;;;;;;;;;;;5041402;28;19976;-92
2023/01/19 15:55:44;;;;;;;;;;;;;;;;;;5038802;28;20022;-91
2023/01/19 15:58:12;;;;;;;;;;;;;;;;;;5038202;28;19990;-91
2023/01/19 16:00:38;;;;;;;;;;;;;;;;;;5054508;28;19925;-90
2023/01/19 16:03:04;;;;;;;;;;;;;;;;;;5038399;28;19921;-91
2023/01/19 16:05:48;;;;;;;;;;;;;;;;;;5041623;28;19921;-92
2023/01/19 16:08:14;;;;;;;;;;;;;;;;;;5039857;28;19927;-91
2023/01/19 16:10:43;;;;;;;;;;;;;;;;;;5040736;28;19920;-92
2023/01/19 16:13:09;;;;;;;;;;;;;;;;;;5040835;28;19921;-91
2023/01/19 16:15:35;;;;;;;;;;;;;;;;;;5057587;28;19925;-91
2023/01/19 16:18:01;;;;;;;;;;;;;;;;;;5057146;28;19921;-91
2023/01/19 16:20:27;;;;;;;;;;;;;;;;;;5057810;28;19931;-91
2023/01/19 16:22:55;;;;;;;;;;;;;;;;;;5055800;28;19920;-90
2023/01/19 16:25:22;;;;;;;;;;;;;;;;;;5037510;28;19921;-91
2023/01/19 16:27:48;;;;;;;;;;;;;;;;;;5054682;28;19924;-91
2023/01/19 16:30:15;;;;;;;;;;;;;;;;;;5037927;28;19928;-90
2023/01/19 16:32:41;;;;;;;;;;;;;;;;;;5037867;28;20004;-91
2023/01/19 16:35:07;;;;;;;;;;;;;;;;;;5038325;28;20279;-91
2023/01/19 16:37:32;;;;;;;;;;;;;;;;;;5037951;28;19931;-91
2023/01/19 16:39:58;;;;;;;;;;;;;;;;;;5054316;28;19925;-91
2023/01/19 16:42:24;;;;;;;;;;;;;;;;;;5037837;28;19920;-92
2023/01/19 16:44:50;;;;;;;;;;;;;;;;;;5054467;28;19921;-91
2023/01/19 16:47:16;;;;;;;;;;;;;;;;;;5037499;28;20061;-91
2023/01/19 16:49:42;;;;;;;;;;;;;;;;;;5053918;28;19921;-90
2023/01/19 16:52:08;;;;;;;;;;;;;;;;;;5054413;28;19921;-91
2023/01/19 16:54:34;;;;;;;;;;;;;;;;;;5037438;28;19994;-90
2023/01/19 16:57:00;;;;;;;;;;;;;;;;;;5037642;28;19931;-91
2023/01/19 16:59:27;;;;;;;;;;;;;;;;;;5037014;28;19929;-91
2023/01/19 17:01:53;;;;;;;;;;;;;;;;;;5037808;28;19970;-91
2023/01/19 17:04:19;;;;;;;;;;;;;;;;;;5054436;28;19927;-91
2023/01/19 17:06:45;;;;;;;;;;;;;;;;;;5037332;28;19920;-90
2023/01/19 17:09:11;;;;;;;;;;;;;;;;;;5054251;28;19920;-91
2023/01/19 17:11:39;;;;;;;;;;;;;;;;;;5037420;28;19921;-91